Time;durP1;ratioP1;P1;durP2;ratioP2;P2;SDS_P1;SDS_P2;PMS_P1;PMS_P2;Temp;Humidity;BMP_temperature;BMP_pressure;BME280_temperature;BME280_humidity;BME280_pressure;Samples;Min_cycle;Max_cycle;Signal;HPM_P1;HPM_P2
2022/06/30 00:00:17;;;;;;;6.40;5.00;;;;;;;;;;5025932;28;20029;-73
2022/06/30 00:02:42;;;;;;;5.85;4.90;;;;;;;;;;5012029;28;20141;-75
2022/06/30 00:05:08;;;;;;;7.35;5.30;;;;;;;;;;5008706;28;20033;-75
2022/06/30 00:07:34;;;;;;;6.40;5.30;;;;;;;;;;5009387;28;20055;-74
2022/06/30 00:09:59;;;;;;;6.80;5.50;;;;;;;;;;5025919;28;20075;-76
2022/06/30 00:12:25;;;;;;;5.88;5.07;;;;;;;;;;5014620;28;20068;-74
2022/06/30 00:14:51;;;;;;;7.95;6.20;;;;;;;;;;5026059;28;20677;-76
2022/06/30 00:17:16;;;;;;;6.43;5.32;;;;;;;;;;5028583;28;20029;-76
2022/06/30 00:19:42;;;;;;;8.45;6.45;;;;;;;;;;5035548;28;20383;-75
2022/06/30 00:22:07;;;;;;;7.55;6.53;;;;;;;;;;5027400;28;20169;-77
2022/06/30 00:24:34;;;;;;;9.63;6.68;;;;;;;;;;5028781;28;20080;-74
2022/06/30 00:27:00;;;;;;;8.55;5.95;;;;;;;;;;5025887;28;20037;-76
2022/06/30 00:29:25;;;;;;;10.18;7.90;;;;;;;;;;5028550;28;20041;-74
2022/06/30 00:31:50;;;;;;;9.85;6.75;;;;;;;;;;5007887;28;20053;-74
2022/06/30 00:34:16;;;;;;;8.35;6.75;;;;;;;;;;5028736;28;20022;-74
2022/06/30 00:36:43;;;;;;;8.32;7.40;;;;;;;;;;5022715;28;20033;-75
2022/06/30 00:39:08;;;;;;;7.38;6.55;;;;;;;;;;5027702;28;20048;-76
2022/06/30 00:41:38;;;;;;;7.45;6.25;;;;;;;;;;5028688;28;20040;-74
2022/06/30 00:44:04;;;;;;;8.52;6.82;;;;;;;;;;5031148;28;20572;-76
2022/06/30 00:46:31;;;;;;;9.70;7.13;;;;;;;;;;5029200;28;20076;-74
2022/06/30 00:48:57;;;;;;;9.50;7.45;;;;;;;;;;5007317;28;20558;-76
2022/06/30 00:51:22;;;;;;;8.98;7.20;;;;;;;;;;5008545;28;20032;-75
2022/06/30 00:53:48;;;;;;;10.60;7.47;;;;;;;;;;5031597;28;20025;-75
2022/06/30 00:56:14;;;;;;;9.32;7.20;;;;;;;;;;5030694;28;20513;-74
2022/06/30 00:58:41;;;;;;;8.98;6.32;;;;;;;;;;5025550;28;20040;-75
2022/06/30 01:01:08;;;;;;;8.85;7.07;;;;;;;;;;5020081;28;20028;-75
2022/06/30 01:03:34;;;;;;;7.97;6.55;;;;;;;;;;5008705;28;20034;-75
2022/06/30 01:06:00;;;;;;;8.80;7.00;;;;;;;;;;5033905;28;20147;-76
2022/06/30 01:08:28;;;;;;;8.82;6.65;;;;;;;;;;5007368;28;20048;-73
2022/06/30 01:13:37;;;;;;;7.88;6.22;;;;;;;;;;5025927;28;20389;-76
2022/06/30 01:16:02;;;;;;;9.70;6.60;;;;;;;;;;5030125;28;20055;-77
2022/06/30 01:18:28;;;;;;;9.52;6.95;;;;;;;;;;5022971;28;20029;-76
2022/06/30 01:20:53;;;;;;;8.18;7.10;;;;;;;;;;5025918;28;20037;-73
2022/06/30 01:23:19;;;;;;;10.45;7.82;;;;;;;;;;5028208;28;20025;-74
2022/06/30 01:25:46;;;;;;;11.52;8.65;;;;;;;;;;5013086;28;20026;-75
2022/06/30 01:28:11;;;;;;;9.88;8.68;;;;;;;;;;5031500;28;20017;-75
2022/06/30 01:30:37;;;;;;;10.88;8.30;;;;;;;;;;5010759;28;20041;-75
2022/06/30 01:33:02;;;;;;;11.85;8.65;;;;;;;;;;5027049;28;20025;-76
2022/06/30 01:35:27;;;;;;;10.13;7.82;;;;;;;;;;5022226;28;20021;-74
2022/06/30 01:37:58;;;;;;;9.95;8.45;;;;;;;;;;5027948;28;20033;-75
2022/06/30 01:40:26;;;;;;;15.60;9.20;;;;;;;;;;5030451;28;20478;-74
2022/06/30 01:42:52;;;;;;;10.63;9.35;;;;;;;;;;5015668;28;20038;-76
2022/06/30 01:45:18;;;;;;;10.20;8.18;;;;;;;;;;5026684;28;20549;-76
2022/06/30 01:47:44;;;;;;;9.27;8.18;;;;;;;;;;5032131;28;20152;-76
2022/06/30 01:50:15;;;;;;;10.52;8.43;;;;;;;;;;5028249;28;20111;-74
2022/06/30 01:52:41;;;;;;;9.60;8.32;;;;;;;;;;5029498;28;20493;-77
2022/06/30 01:55:09;;;;;;;10.68;8.45;;;;;;;;;;5024858;28;20064;-76
2022/06/30 01:57:36;;;;;;;10.75;9.13;;;;;;;;;;5026728;28;20037;-77
2022/06/30 02:00:03;;;;;;;11.50;9.35;;;;;;;;;;5013080;28;20116;-75
2022/06/30 02:02:29;;;;;;;10.82;8.90;;;;;;;;;;5010301;28;20021;-76
2022/06/30 02:04:54;;;;;;;14.25;9.35;;;;;;;;;;5009088;28;20056;-77
2022/06/30 02:07:21;;;;;;;11.98;9.15;;;;;;;;;;5025494;28;20025;-76
2022/06/30 02:09:50;;;;;;;10.05;8.30;;;;;;;;;;5027333;28;20034;-74
2022/06/30 02:15:05;;;;;;;11.82;9.30;;;;;;;;;;5022106;28;20064;-74
2022/06/30 02:17:31;;;;;;;12.65;9.82;;;;;;;;;;5025927;28;20030;-74
2022/06/30 02:19:56;;;;;;;12.70;8.95;;;;;;;;;;5027087;28;20032;-75
2022/06/30 02:22:21;;;;;;;12.38;9.18;;;;;;;;;;5025501;28;20477;-75
2022/06/30 02:24:47;;;;;;;10.10;9.07;;;;;;;;;;5011480;28;20033;-73
2022/06/30 02:27:12;;;;;;;12.98;10.32;;;;;;;;;;5011592;28;20485;-77
2022/06/30 02:29:38;;;;;;;12.45;10.23;;;;;;;;;;5013159;28;20128;-74
2022/06/30 02:32:04;;;;;;;10.50;9.27;;;;;;;;;;5022384;28;20080;-74
2022/06/30 02:34:30;;;;;;;12.88;10.32;;;;;;;;;;5026987;28;20037;-75
2022/06/30 02:36:56;;;;;;;13.57;9.82;;;;;;;;;;5007656;28;20026;-74
2022/06/30 02:39:22;;;;;;;13.88;9.70;;;;;;;;;;5027958;28;20440;-75
2022/06/30 02:41:47;;;;;;;11.48;9.57;;;;;;;;;;5028996;28;20029;-76
2022/06/30 02:44:13;;;;;;;10.70;9.15;;;;;;;;;;5027228;28;20405;-75
2022/06/30 02:46:38;;;;;;;11.77;9.30;;;;;;;;;;5026368;28;20489;-75
2022/06/30 02:49:04;;;;;;;12.75;9.52;;;;;;;;;;5025543;28;20469;-74
2022/06/30 02:51:30;;;;;;;13.45;10.48;;;;;;;;;;5023767;28;20043;-76
2022/06/30 02:53:55;;;;;;;13.02;10.52;;;;;;;;;;5025233;28;20025;-76
2022/06/30 02:56:20;;;;;;;12.38;9.43;;;;;;;;;;5026868;28;20032;-76
2022/06/30 02:58:47;;;;;;;12.30;10.43;;;;;;;;;;5027292;28;20044;-75
2022/06/30 03:01:13;;;;;;;12.57;10.10;;;;;;;;;;5025851;28;20025;-75
2022/06/30 03:03:39;;;;;;;15.65;10.95;;;;;;;;;;5029785;28;20123;-74
2022/06/30 03:06:05;;;;;;;13.77;10.50;;;;;;;;;;5032091;28;20457;-75
2022/06/30 03:08:30;;;;;;;12.93;11.23;;;;;;;;;;5029007;28;20035;-75
2022/06/30 03:10:55;;;;;;;11.45;9.80;;;;;;;;;;5029255;28;20091;-74
2022/06/30 03:13:21;;;;;;;14.13;10.25;;;;;;;;;;5027871;28;20082;-73
2022/06/30 03:15:48;;;;;;;11.32;9.85;;;;;;;;;;5027322;28;20053;-76
2022/06/30 03:18:13;;;;;;;14.15;10.43;;;;;;;;;;5031197;28;20113;-74
2022/06/30 03:20:39;;;;;;;11.88;9.35;;;;;;;;;;5012549;28;21742;-74
2022/06/30 03:23:04;;;;;;;12.20;9.00;;;;;;;;;;5014445;28;20029;-76
2022/06/30 03:25:30;;;;;;;11.60;9.65;;;;;;;;;;5027795;28;20421;-74
2022/06/30 03:27:55;;;;;;;11.50;9.20;;;;;;;;;;5013636;28;20037;-75
2022/06/30 03:30:20;;;;;;;12.43;9.48;;;;;;;;;;5011290;28;20046;-77
2022/06/30 03:32:46;;;;;;;12.05;9.50;;;;;;;;;;5013137;28;20024;-75
2022/06/30 03:35:11;;;;;;;11.85;9.50;;;;;;;;;;5035118;28;20059;-76
2022/06/30 03:37:36;;;;;;;13.25;9.43;;;;;;;;;;5028902;28;20390;-75
2022/06/30 03:40:03;;;;;;;12.70;10.38;;;;;;;;;;5029974;28;20028;-75
2022/06/30 03:42:28;;;;;;;12.07;9.18;;;;;;;;;;5026143;28;20020;-74
2022/06/30 03:44:53;;;;;;;13.63;10.00;;;;;;;;;;5033674;28;20086;-74
2022/06/30 03:47:19;;;;;;;13.65;10.27;;;;;;;;;;5014803;28;20512;-74
2022/06/30 03:49:44;;;;;;;12.13;10.02;;;;;;;;;;5029207;28;20056;-74
2022/06/30 03:52:10;;;;;;;10.55;8.88;;;;;;;;;;5012778;28;20032;-74
2022/06/30 03:54:35;;;;;;;10.77;8.82;;;;;;;;;;5030091;28;20025;-76
2022/06/30 03:57:00;;;;;;;10.40;9.15;;;;;;;;;;5018865;28;20033;-74
2022/06/30 03:59:26;;;;;;;12.80;9.13;;;;;;;;;;5011894;28;20095;-76
2022/06/30 04:01:51;;;;;;;13.82;10.13;;;;;;;;;;5028931;28;20492;-76
2022/06/30 04:04:17;;;;;;;11.45;9.18;;;;;;;;;;5026374;28;20485;-74
2022/06/30 04:06:42;;;;;;;12.23;9.80;;;;;;;;;;5030896;28;20529;-76
2022/06/30 04:09:08;;;;;;;12.65;9.73;;;;;;;;;;5031340;28;20107;-74
2022/06/30 04:11:33;;;;;;;10.93;9.48;;;;;;;;;;5031041;28;20029;-76
2022/06/30 04:13:59;;;;;;;13.15;9.60;;;;;;;;;;5033884;28;20044;-74
2022/06/30 04:16:24;;;;;;;10.52;9.10;;;;;;;;;;5013563;28;20029;-76
2022/06/30 04:18:49;;;;;;;12.35;9.90;;;;;;;;;;5030107;28;20104;-76
2022/06/30 04:21:16;;;;;;;12.35;10.02;;;;;;;;;;5033191;28;20103;-76
2022/06/30 04:23:42;;;;;;;11.73;9.80;;;;;;;;;;5010384;28;20107;-75
2022/06/30 04:26:08;;;;;;;12.55;9.57;;;;;;;;;;5029456;28;20032;-74
2022/06/30 04:28:33;;;;;;;13.63;10.15;;;;;;;;;;5014578;28;20046;-76
2022/06/30 04:33:42;;;;;;;13.18;10.52;;;;;;;;;;5029056;28;20037;-74
2022/06/30 04:36:08;;;;;;;12.85;10.10;;;;;;;;;;5031697;28;20033;-75
2022/06/30 04:38:33;;;;;;;13.75;10.13;;;;;;;;;;5027613;28;20037;-74
2022/06/30 04:43:42;;;;;;;13.00;10.48;;;;;;;;;;5030150;28;20041;-74
2022/06/30 04:46:08;;;;;;;13.52;11.10;;;;;;;;;;5035603;28;20025;-76
2022/06/30 04:48:33;;;;;;;13.30;9.90;;;;;;;;;;5033866;28;20113;-75
2022/06/30 04:50:59;;;;;;;11.18;9.88;;;;;;;;;;5009567;28;20485;-75
2022/06/30 04:53:24;;;;;;;13.13;10.60;;;;;;;;;;5011310;28;20025;-75
2022/06/30 04:55:50;;;;;;;11.65;9.48;;;;;;;;;;5028356;28;20041;-73
2022/06/30 04:58:15;;;;;;;11.23;8.82;;;;;;;;;;5026182;28;20029;-75
2022/06/30 05:00:40;;;;;;;13.45;9.60;;;;;;;;;;5008429;28;20116;-76
2022/06/30 05:03:06;;;;;;;12.23;10.18;;;;;;;;;;5025430;28;20062;-76
2022/06/30 05:05:31;;;;;;;14.98;10.48;;;;;;;;;;5005637;28;20481;-76
2022/06/30 05:07:57;;;;;;;14.88;12.00;;;;;;;;;;5008468;28;20064;-77
2022/06/30 05:10:22;;;;;;;13.73;11.90;;;;;;;;;;5026496;28;20049;-75
2022/06/30 05:12:48;;;;;;;15.95;13.35;;;;;;;;;;5027516;28;20025;-75
2022/06/30 05:15:13;;;;;;;14.93;12.60;;;;;;;;;;5027748;28;20030;-76
2022/06/30 05:17:38;;;;;;;14.82;12.05;;;;;;;;;;5029768;28;20029;-75
2022/06/30 05:20:04;;;;;;;13.35;11.95;;;;;;;;;;5027817;28;20064;-75
2022/06/30 05:22:30;;;;;;;14.23;12.75;;;;;;;;;;5028821;28;20033;-74
2022/06/30 05:27:39;;;;;;;15.57;13.85;;;;;;;;;;5028830;28;20070;-74
2022/06/30 05:30:05;;;;;;;14.00;12.25;;;;;;;;;;5021198;28;20132;-74
2022/06/30 05:32:31;;;;;;;15.00;12.65;;;;;;;;;;5010233;28;20802;-74
2022/06/30 05:34:56;;;;;;;15.02;13.43;;;;;;;;;;5025502;28;20049;-74
2022/06/30 05:37:22;;;;;;;15.23;13.25;;;;;;;;;;5023260;28;20025;-76
2022/06/30 05:39:47;;;;;;;16.40;13.50;;;;;;;;;;5024452;28;20026;-74
2022/06/30 05:42:12;;;;;;;14.13;12.73;;;;;;;;;;5024120;28;20487;-75
2022/06/30 05:44:38;;;;;;;14.68;12.55;;;;;;;;;;5009598;28;20103;-74
2022/06/30 05:47:03;;;;;;;13.90;12.27;;;;;;;;;;5023625;28;20041;-75
2022/06/30 05:49:29;;;;;;;14.48;12.98;;;;;;;;;;5021236;28;20060;-76
2022/06/30 05:51:54;;;;;;;15.73;14.13;;;;;;;;;;5027804;28;20021;-76
2022/06/30 05:54:20;;;;;;;15.43;13.82;;;;;;;;;;5024927;28;20020;-75
2022/06/30 05:56:45;;;;;;;15.02;13.20;;;;;;;;;;5024745;28;20032;-74
2022/06/30 05:59:11;;;;;;;16.75;15.05;;;;;;;;;;5027888;28;20493;-76
2022/06/30 06:01:36;;;;;;;17.30;15.45;;;;;;;;;;5004727;28;20471;-76
2022/06/30 06:04:02;;;;;;;17.25;15.38;;;;;;;;;;5024352;28;20029;-74
2022/06/30 06:06:28;;;;;;;17.23;15.38;;;;;;;;;;5020090;28;20033;-75
2022/06/30 06:08:53;;;;;;;17.30;15.52;;;;;;;;;;5022835;28;20040;-75
2022/06/30 06:11:19;;;;;;;18.50;16.30;;;;;;;;;;5009300;28;20018;-75
2022/06/30 06:13:44;;;;;;;17.80;15.90;;;;;;;;;;5030257;28;20033;-76
2022/06/30 06:16:09;;;;;;;19.35;16.52;;;;;;;;;;5031863;28;20026;-74
2022/06/30 06:18:35;;;;;;;18.42;15.95;;;;;;;;;;5028536;28;20029;-75
2022/06/30 06:21:00;;;;;;;20.17;16.15;;;;;;;;;;5011160;28;20111;-74
2022/06/30 06:23:25;;;;;;;18.73;15.70;;;;;;;;;;5008948;28;20064;-75
2022/06/30 06:25:51;;;;;;;17.58;15.73;;;;;;;;;;5024837;28;20025;-75
2022/06/30 06:31:02;;;;;;;18.17;14.52;;;;;;;;;;5030052;28;20040;-74
2022/06/30 06:33:27;;;;;;;17.58;14.48;;;;;;;;;;5025710;28;20033;-70
2022/06/30 06:35:52;;;;;;;15.93;13.82;;;;;;;;;;5006964;28;20033;-74
2022/06/30 06:38:18;;;;;;;15.45;13.85;;;;;;;;;;5024025;28;20032;-73
2022/06/30 06:40:44;;;;;;;15.93;13.85;;;;;;;;;;5026509;28;20044;-76
2022/06/30 06:43:09;;;;;;;16.08;13.07;;;;;;;;;;5028445;28;20030;-73
2022/06/30 06:45:34;;;;;;;17.98;13.57;;;;;;;;;;5029025;28;20025;-73
2022/06/30 06:48:00;;;;;;;16.33;13.40;;;;;;;;;;5030641;28;20079;-74
2022/06/30 06:50:25;;;;;;;20.48;13.68;;;;;;;;;;5030438;28;20500;-73
2022/06/30 06:52:51;;;;;;;19.20;14.15;;;;;;;;;;5025539;28;20532;-73
2022/06/30 06:55:17;;;;;;;18.92;14.45;;;;;;;;;;5027629;28;20030;-73
2022/06/30 06:57:43;;;;;;;18.80;14.32;;;;;;;;;;5033762;28;20025;-74
2022/06/30 07:00:12;;;;;;;18.85;14.35;;;;;;;;;;5011479;28;20033;-73
2022/06/30 07:02:38;;;;;;;16.08;13.43;;;;;;;;;;5026535;28;20347;-74
2022/06/30 07:05:04;;;;;;;17.40;13.63;;;;;;;;;;5011483;28;20028;-73
2022/06/30 07:07:29;;;;;;;17.58;14.65;;;;;;;;;;5013933;28;20032;-73
2022/06/30 07:09:55;;;;;;;15.45;13.60;;;;;;;;;;5031030;28;20385;-74
2022/06/30 07:12:20;;;;;;;18.30;13.55;;;;;;;;;;5026856;28;20017;-72
2022/06/30 07:14:45;;;;;;;15.10;12.30;;;;;;;;;;5008906;28;20104;-73
2022/06/30 07:17:11;;;;;;;14.15;11.60;;;;;;;;;;5031069;28;20029;-72
2022/06/30 07:19:36;;;;;;;15.48;11.50;;;;;;;;;;5028706;28;20104;-74
2022/06/30 07:22:02;;;;;;;14.38;11.23;;;;;;;;;;5030413;28;20041;-73
2022/06/30 07:24:27;;;;;;;15.18;11.15;;;;;;;;;;5033469;28;20057;-75
2022/06/30 07:26:53;;;;;;;16.50;9.77;;;;;;;;;;5028577;28;20107;-73
2022/06/30 07:29:18;;;;;;;12.95;9.48;;;;;;;;;;5028406;28;20148;-72
2022/06/30 07:31:43;;;;;;;12.70;9.95;;;;;;;;;;5035682;28;20637;-74
2022/06/30 07:34:09;;;;;;;11.35;9.10;;;;;;;;;;5010338;28;20035;-74
2022/06/30 07:36:36;;;;;;;11.93;9.43;;;;;;;;;;5037892;28;21343;-72
2022/06/30 07:39:02;;;;;;;10.10;8.20;;;;;;;;;;5031671;28;20031;-74
2022/06/30 07:41:28;;;;;;;11.00;7.60;;;;;;;;;;5037626;28;20377;-73
2022/06/30 07:43:53;;;;;;;10.43;6.90;;;;;;;;;;5030249;28;20024;-73
2022/06/30 07:46:19;;;;;;;9.02;6.93;;;;;;;;;;5014103;28;20021;-68
2022/06/30 07:48:46;;;;;;;10.75;7.47;;;;;;;;;;5029870;28;20030;-74
2022/06/30 07:51:11;;;;;;;11.10;7.00;;;;;;;;;;5011168;28;20026;-74
2022/06/30 07:53:37;;;;;;;9.65;6.70;;;;;;;;;;5016051;28;20031;-69
2022/06/30 07:56:03;;;;;;;9.80;6.20;;;;;;;;;;5013903;28;20405;-72
2022/06/30 07:58:28;;;;;;;8.48;6.65;;;;;;;;;;5028803;28;20124;-72
2022/06/30 08:00:53;;;;;;;10.27;6.75;;;;;;;;;;5032607;28;20040;-72
2022/06/30 08:03:19;;;;;;;9.35;6.90;;;;;;;;;;5030980;28;20018;-69
2022/06/30 08:05:44;;;;;;;8.88;7.35;;;;;;;;;;5026599;28;20035;-71
2022/06/30 08:08:10;;;;;;;8.82;7.30;;;;;;;;;;5013388;28;20092;-73
2022/06/30 08:10:35;;;;;;;8.13;6.18;;;;;;;;;;5024935;28;20013;-72
2022/06/30 08:13:00;;;;;;;10.75;6.80;;;;;;;;;;5031324;28;20025;-74
2022/06/30 08:15:26;;;;;;;9.15;7.00;;;;;;;;;;5028477;28;20025;-73
2022/06/30 08:17:52;;;;;;;12.30;6.65;;;;;;;;;;5028036;28;20025;-69
2022/06/30 08:20:17;;;;;;;11.15;6.90;;;;;;;;;;5027494;28;20685;-74
2022/06/30 08:22:43;;;;;;;9.68;7.30;;;;;;;;;;5037122;28;20036;-69
2022/06/30 08:25:08;;;;;;;11.02;6.85;;;;;;;;;;5026475;28;20029;-73
2022/06/30 08:27:34;;;;;;;9.00;6.63;;;;;;;;;;5030472;28;20041;-73
2022/06/30 08:29:59;;;;;;;10.10;7.00;;;;;;;;;;5031509;28;20049;-74
2022/06/30 08:32:24;;;;;;;9.43;5.88;;;;;;;;;;5032077;28;20035;-72
2022/06/30 08:34:50;;;;;;;9.95;6.43;;;;;;;;;;5023692;28;20500;-69
2022/06/30 08:37:15;;;;;;;9.20;6.20;;;;;;;;;;5026209;28;20033;-70
2022/06/30 08:42:26;;;;;;;10.73;6.22;;;;;;;;;;5031447;28;20511;-73
2022/06/30 08:47:37;;;;;;;11.68;5.95;;;;;;;;;;5028116;28;20404;-72
2022/06/30 08:50:03;;;;;;;10.07;5.93;;;;;;;;;;5028650;28;20107;-72
2022/06/30 08:52:30;;;;;;;9.73;5.70;;;;;;;;;;5028874;28;20040;-72
2022/06/30 08:54:58;;;;;;;8.98;4.95;;;;;;;;;;5029855;28;20033;-72
2022/06/30 08:57:25;;;;;;;8.48;5.63;;;;;;;;;;5027345;28;20055;-72
2022/06/30 08:59:51;;;;;;;10.13;6.00;;;;;;;;;;5036070;28;20033;-73
2022/06/30 09:02:18;;;;;;;9.75;5.78;;;;;;;;;;5014708;28;20025;-73
2022/06/30 09:04:43;;;;;;;10.23;6.28;;;;;;;;;;5031069;28;20029;-73
2022/06/30 09:07:08;;;;;;;9.68;5.65;;;;;;;;;;5003787;28;20029;-72
2022/06/30 09:09:34;;;;;;;11.82;5.00;;;;;;;;;;5029010;28;20029;-74
2022/06/30 09:11:59;;;;;;;8.73;4.72;;;;;;;;;;5010737;28;20025;-73
2022/06/30 09:14:33;;;;;;;8.95;5.28;;;;;;;;;;5025303;28;20030;-74
2022/06/30 09:16:59;;;;;;;8.65;5.20;;;;;;;;;;5026652;28;20029;-72
2022/06/30 09:19:25;;;;;;;7.13;4.85;;;;;;;;;;5030678;28;20721;-68
2022/06/30 09:22:03;;;;;;;8.45;4.90;;;;;;;;;;5012544;28;20405;-74
2022/06/30 09:24:28;;;;;;;7.70;4.85;;;;;;;;;;5029718;28;20044;-72
2022/06/30 09:27:11;;;;;;;9.05;5.20;;;;;;;;;;5031670;28;20021;-74
2022/06/30 09:30:04;;;;;;;7.65;4.93;;;;;;;;;;5031093;28;20055;-69
2022/06/30 09:32:30;;;;;;;8.07;4.80;;;;;;;;;;5026480;28;20070;-74
2022/06/30 09:35:08;;;;;;;9.05;4.93;;;;;;;;;;5016125;28;20436;-73
2022/06/30 09:37:35;;;;;;;9.70;5.05;;;;;;;;;;5026707;28;20531;-73
2022/06/30 09:40:00;;;;;;;7.97;4.85;;;;;;;;;;5026550;28;20047;-73
2022/06/30 09:42:58;;;;;;;7.80;5.00;;;;;;;;;;5024974;28;20858;-73
2022/06/30 09:45:34;;;;;;;8.00;4.78;;;;;;;;;;4967815;28;20034;-73
2022/06/30 09:48:00;;;;;;;8.98;5.22;;;;;;;;;;5026290;28;20025;-74
2022/06/30 09:50:25;;;;;;;6.30;4.30;;;;;;;;;;5028642;28;20040;-74
2022/06/30 09:53:13;;;;;;;6.18;4.47;;;;;;;;;;5025725;28;20041;-74
2022/06/30 09:55:47;;;;;;;9.45;4.45;;;;;;;;;;5027855;28;20032;-73
2022/06/30 09:58:35;;;;;;;12.05;4.80;;;;;;;;;;5025847;28;20108;-72
2022/06/30 10:01:02;;;;;;;9.82;4.60;;;;;;;;;;5026285;28;20025;-72
2022/06/30 10:03:27;;;;;;;10.40;5.35;;;;;;;;;;5008857;28;20037;-73
2022/06/30 10:06:14;;;;;;;9.52;5.45;;;;;;;;;;5029497;28;20025;-73
2022/06/30 10:08:40;;;;;;;8.48;5.05;;;;;;;;;;5027415;28;20029;-72
2022/06/30 10:11:07;;;;;;;10.00;5.18;;;;;;;;;;5025308;28;20030;-73
2022/06/30 10:13:39;;;;;;;9.02;5.55;;;;;;;;;;5024358;28;20088;-73
2022/06/30 10:16:06;;;;;;;6.97;5.03;;;;;;;;;;5032187;28;20112;-72
2022/06/30 10:18:36;;;;;;;8.02;5.30;;;;;;;;;;5028265;28;20477;-74
2022/06/30 10:21:01;;;;;;;8.45;5.30;;;;;;;;;;5024436;28;20017;-73
2022/06/30 10:23:27;;;;;;;10.43;5.63;;;;;;;;;;5029859;28;20474;-73
2022/06/30 10:25:54;;;;;;;8.50;5.55;;;;;;;;;;5031544;28;20478;-73
2022/06/30 10:28:21;;;;;;;7.47;5.22;;;;;;;;;;5034436;28;20025;-73
2022/06/30 10:31:15;;;;;;;8.32;5.50;;;;;;;;;;5030244;28;20496;-72
2022/06/30 10:34:07;;;;;;;8.13;5.30;;;;;;;;;;5040694;28;20409;-73
2022/06/30 10:37:00;;;;;;;12.10;5.32;;;;;;;;;;5014064;28;20079;-72
2022/06/30 10:39:47;;;;;;;8.88;5.03;;;;;;;;;;5020304;28;20048;-73
2022/06/30 10:42:41;;;;;;;6.60;4.55;;;;;;;;;;5032166;28;20029;-73
2022/06/30 10:45:29;;;;;;;10.27;4.53;;;;;;;;;;5028686;28;20029;-73
2022/06/30 10:48:13;;;;;;;9.07;4.47;;;;;;;;;;5031010;28;20512;-72
2022/06/30 10:50:41;;;;;;;8.48;4.30;;;;;;;;;;5031077;28;20025;-72
2022/06/30 10:53:09;;;;;;;7.85;4.45;;;;;;;;;;5035053;28;20025;-73
2022/06/30 10:55:48;;;;;;;6.88;3.45;;;;;;;;;;5024823;28;20045;-74
2022/06/30 10:58:13;;;;;;;9.80;4.30;;;;;;;;;;5012865;28;20052;-72
2022/06/30 11:01:03;;;;;;;6.95;4.20;;;;;;;;;;5028652;28;20060;-73
2022/06/30 11:03:34;;;;;;;8.00;4.43;;;;;;;;;;5017502;28;20037;-72
2022/06/30 11:06:09;;;;;;;7.78;3.83;;;;;;;;;;5011507;28;20022;-72
2022/06/30 11:08:47;;;;;;;7.45;4.75;;;;;;;;;;5030266;28;20144;-74
2022/06/30 11:11:24;;;;;;;8.10;4.07;;;;;;;;;;5031998;28;20378;-72
2022/06/30 11:14:07;;;;;;;8.25;4.20;;;;;;;;;;5030536;28;20087;-73
2022/06/30 11:16:34;;;;;;;;;;;;;;;;;;5028295;28;20025;-73
2022/06/30 11:19:00;;;;;;;6.25;3.70;;;;;;;;;;5030127;28;20340;-72
2022/06/30 11:21:30;;;;;;;6.68;5.00;;;;;;;;;;5027268;28;20033;-73
2022/06/30 11:24:00;;;;;;;7.53;4.65;;;;;;;;;;5026337;28;20026;-73
2022/06/30 11:29:14;;;;;;;5.00;2.97;;;;;;;;;;5026946;28;20445;-74
2022/06/30 11:31:41;;;;;;;5.50;3.08;;;;;;;;;;5029380;28;20091;-72
2022/06/30 11:34:09;;;;;;;6.55;3.70;;;;;;;;;;5030225;28;20389;-73
2022/06/30 11:36:37;;;;;;;5.47;3.75;;;;;;;;;;5029702;28;20026;-72
2022/06/30 11:39:06;;;;;;;9.35;3.50;;;;;;;;;;5029481;28;20401;-73
2022/06/30 11:44:18;;;;;;;6.43;3.17;;;;;;;;;;5025846;28;20513;-73
2022/06/30 11:46:48;;;;;;;6.20;3.60;;;;;;;;;;5028241;28;20021;-73
2022/06/30 11:49:14;;;;;;;8.60;4.28;;;;;;;;;;5025907;28;20029;-74
2022/06/30 11:51:41;;;;;;;7.43;3.42;;;;;;;;;;5014725;28;20496;-73
2022/06/30 11:54:08;;;;;;;5.90;3.17;;;;;;;;;;5025700;28;20079;-73
2022/06/30 11:57:00;;;;;;;6.53;3.90;;;;;;;;;;5027369;28;20014;-72
2022/06/30 11:59:26;;;;;;;6.13;3.40;;;;;;;;;;5021065;28;20041;-73
2022/06/30 12:02:02;;;;;;;5.45;3.58;;;;;;;;;;5011682;28;20029;-72
2022/06/30 12:04:27;;;;;;;5.50;3.55;;;;;;;;;;5001902;28;20021;-72
2022/06/30 12:06:53;;;;;;;6.85;3.08;;;;;;;;;;5030007;28;20036;-72
2022/06/30 12:09:18;;;;;;;6.82;3.83;;;;;;;;;;5026813;28;20025;-73
2022/06/30 12:11:45;;;;;;;6.35;3.78;;;;;;;;;;5009420;28;20026;-73
2022/06/30 12:14:11;;;;;;;5.95;3.53;;;;;;;;;;5011902;28;20025;-73
2022/06/30 12:16:36;;;;;;;5.75;3.42;;;;;;;;;;5032147;28;20021;-73
2022/06/30 12:19:01;;;;;;;7.72;3.67;;;;;;;;;;5029600;28;20036;-73
2022/06/30 12:21:27;;;;;;;6.05;3.22;;;;;;;;;;5034934;28;20104;-72
2022/06/30 12:23:54;;;;;;;5.75;3.80;;;;;;;;;;5029341;28;20025;-73
2022/06/30 12:26:20;;;;;;;6.18;3.60;;;;;;;;;;5029350;28;20029;-72
2022/06/30 12:28:52;;;;;;;5.78;3.72;;;;;;;;;;5025299;28;20506;-73
2022/06/30 12:31:24;;;;;;;8.30;4.25;;;;;;;;;;5030983;28;20029;-72
2022/06/30 12:33:51;;;;;;;6.85;3.90;;;;;;;;;;5010620;28;20030;-72
2022/06/30 12:36:17;;;;;;;6.13;3.67;;;;;;;;;;5029057;28;20032;-73
2022/06/30 12:38:42;;;;;;;5.05;3.08;;;;;;;;;;5030694;28;20029;-73
2022/06/30 12:41:10;;;;;;;4.47;3.10;;;;;;;;;;5031365;28;20060;-73
2022/06/30 12:43:47;;;;;;;6.07;3.10;;;;;;;;;;5029172;28;20559;-72
2022/06/30 12:46:14;;;;;;;9.75;3.47;;;;;;;;;;5027964;28;20432;-72
2022/06/30 12:48:53;;;;;;;5.25;2.85;;;;;;;;;;5028576;28;20052;-73
2022/06/30 12:51:27;;;;;;;6.07;3.28;;;;;;;;;;5028425;28;20100;-73
2022/06/30 12:53:58;;;;;;;4.85;2.70;;;;;;;;;;5028177;28;20031;-72
2022/06/30 12:56:24;;;;;;;5.80;2.55;;;;;;;;;;5023183;28;20025;-73
2022/06/30 12:58:59;;;;;;;5.53;3.05;;;;;;;;;;5025101;28;20043;-72
2022/06/30 13:01:30;;;;;;;6.75;3.60;;;;;;;;;;5031559;28;20239;-73
2022/06/30 13:04:02;;;;;;;6.88;3.10;;;;;;;;;;5032523;28;20104;-73
2022/06/30 13:06:30;;;;;;;6.22;3.00;;;;;;;;;;5028873;28;20071;-72
2022/06/30 13:08:55;;;;;;;7.10;2.78;;;;;;;;;;5029337;28;20037;-73
2022/06/30 13:11:24;;;;;;;4.10;2.80;;;;;;;;;;5035004;28;20048;-73
2022/06/30 13:13:50;;;;;;;5.93;2.55;;;;;;;;;;5034702;28;20116;-72
2022/06/30 13:16:16;;;;;;;6.60;2.40;;;;;;;;;;5023919;28;20092;-73
2022/06/30 13:18:42;;;;;;;4.97;2.30;;;;;;;;;;5007670;28;20040;-73
2022/06/30 13:21:08;;;;;;;4.28;2.33;;;;;;;;;;5029459;28;20025;-72
2022/06/30 13:23:33;;;;;;;5.20;2.25;;;;;;;;;;5027784;28;20108;-73
2022/06/30 13:25:59;;;;;;;4.43;2.05;;;;;;;;;;5024793;28;20025;-72
2022/06/30 13:28:24;;;;;;;6.10;2.80;;;;;;;;;;5024416;28;20025;-74
2022/06/30 13:30:50;;;;;;;4.82;2.20;;;;;;;;;;5029180;28;20396;-73
2022/06/30 13:33:15;;;;;;;5.10;2.40;;;;;;;;;;5027556;28;20124;-72
2022/06/30 13:35:41;;;;;;;4.88;2.67;;;;;;;;;;5021551;28;20461;-73
2022/06/30 13:38:06;;;;;;;4.35;2.10;;;;;;;;;;5026623;28;20124;-73
2022/06/30 13:40:35;;;;;;;5.38;2.50;;;;;;;;;;5023687;28;20079;-72
2022/06/30 13:43:00;;;;;;;4.10;2.65;;;;;;;;;;5022775;28;20029;-73
2022/06/30 13:45:26;;;;;;;4.03;2.13;;;;;;;;;;5011516;28;20479;-72
2022/06/30 13:47:51;;;;;;;4.90;2.25;;;;;;;;;;5029653;28;20446;-73
2022/06/30 13:50:18;;;;;;;5.93;3.40;;;;;;;;;;5012151;28;20025;-73
2022/06/30 13:52:43;;;;;;;6.97;2.70;;;;;;;;;;5004762;28;20033;-72
2022/06/30 13:55:09;;;;;;;6.30;2.50;;;;;;;;;;5030426;28;20021;-72
2022/06/30 13:57:34;;;;;;;4.68;2.30;;;;;;;;;;5021701;28;20021;-72
2022/06/30 14:00:00;;;;;;;4.82;2.75;;;;;;;;;;5029249;28;20424;-72
2022/06/30 14:02:25;;;;;;;6.13;3.00;;;;;;;;;;5018670;28;20029;-72
2022/06/30 14:04:50;;;;;;;4.72;2.50;;;;;;;;;;5029441;28;20022;-72
2022/06/30 14:07:16;;;;;;;4.50;2.50;;;;;;;;;;5026357;28;20071;-73
2022/06/30 14:09:42;;;;;;;4.60;2.72;;;;;;;;;;5031100;28;20025;-73
2022/06/30 14:12:08;;;;;;;5.30;2.20;;;;;;;;;;5027017;28;20064;-73
2022/06/30 14:14:33;;;;;;;4.65;2.70;;;;;;;;;;5029889;28;20037;-73
2022/06/30 14:16:58;;;;;;;5.10;3.20;;;;;;;;;;5020081;28;20464;-73
2022/06/30 14:19:24;;;;;;;5.43;3.35;;;;;;;;;;5014716;28;20057;-73
2022/06/30 14:21:50;;;;;;;6.05;2.80;;;;;;;;;;5009689;28;20025;-72
2022/06/30 14:24:16;;;;;;;7.78;3.10;;;;;;;;;;5023248;28;20025;-72
2022/06/30 14:26:41;;;;;;;5.45;2.50;;;;;;;;;;5024412;28;20029;-73
2022/06/30 14:29:07;;;;;;;6.00;2.47;;;;;;;;;;5026175;28;20057;-73
2022/06/30 14:31:32;;;;;;;7.10;2.70;;;;;;;;;;5023635;28;20032;-73
2022/06/30 14:33:57;;;;;;;5.78;2.28;;;;;;;;;;5022541;28;20116;-72
2022/06/30 14:36:23;;;;;;;3.72;2.10;;;;;;;;;;5025724;28;20116;-73
2022/06/30 14:38:48;;;;;;;3.78;2.05;;;;;;;;;;5025195;28;20056;-73
2022/06/30 14:42:43;;;;;;;4.90;2.42;;;;;;;;;;5022664;28;20044;-73
2022/06/30 14:43:59;;;;;;;6.35;2.90;;;;;;;;;;5022592;28;20040;-73
2022/06/30 14:46:24;;;;;;;4.63;2.67;;;;;;;;;;5029442;28;20029;-72
2022/06/30 14:48:52;;;;;;;6.47;2.50;;;;;;;;;;5024661;28;20129;-73
2022/06/30 14:51:17;;;;;;;5.18;2.40;;;;;;;;;;5007888;28;20041;-72
2022/06/30 14:53:43;;;;;;;4.00;2.38;;;;;;;;;;5010369;28;20022;-73
2022/06/30 14:56:08;;;;;;;6.30;2.78;;;;;;;;;;5005567;28;20568;-73
2022/06/30 14:58:33;;;;;;;6.65;3.20;;;;;;;;;;5026089;28;20029;-72
2022/06/30 15:00:59;;;;;;;6.47;3.20;;;;;;;;;;5027099;28;20394;-73